Impacts TAF Board INFO
FOR SITUATIONAL AWARENESS. NOT TO BE USED FOR FLIGHT PLANNING PURPOSES.
IDs:

KMCI - Kansas City Intl, MO, US

Issued at 0520 UTC 16 Jan 2018
Updated at 0717 UTC 16 Jan 2018
Potential Impact None Slight Moderate High
Time0653Z 16/08Z 16/09Z 16/10Z 16/11Z 16/12Z 16/13Z 16/14Z 16/15Z 16/16Z 16/17Z 16/18Z 16/19Z 16/20Z>>
Type OBS PRVL PRVL PRVL PRVL PRVL PRVL PRVL PRVL PRVL PRVL PRVL PRVL PRVL
VIS 10 >6 >6 >6 >6 >6 >6 >6 >6 >6 >6 >6 >6 >6
CIG -- -- -- -- -- -- -- -- 25 25 25 25 25 25
Cover CLR SKC SKC SKC SKC SKC SKC SKC OVC OVC OVC OVC OVC OVC
FltCat VFR VFR VFR VFR VFR VFR VFR VFR MVFR MVFR MVFR MVFR MVFR MVFR
WX -- -- -- -- -- -- -- -- -- -- -- -- -- --
WDir 320 330 330 330 330 330 330 330 310 310 310 310 310 310
WSpd 10 12 12 12 12 12 12 12 10 10 10 10 10 10
WGst -- -- -- -- -- -- -- -- -- -- -- -- -- --

Raw TAF
KMCI 160520Z 1606/1706 33012KT P6SM SKC
  FM161500 31010KT P6SM OVC025
  FM162200 31005KT P6SM SCT025


Raw METAR
KMCI 160653Z 32010KT 10SM CLR M19/M23 A3067 RMK AO2 SLP409 T11891228
KMCI 160553Z 33009KT 10SM CLR M18/M23 A3069 RMK AO2 SLP415 4/001 T11831228 11156 21183 400061183 51006
KMCI 160453Z 33009KT 10SM CLR M18/M22 A3069 RMK AO2 SLP414 T11781222

METAR Board
Radar Display
Forecast Discussion

FOR SITUATIONAL AWARENESS. NOT TO BE USED FOR FLIGHT PLANNING PURPOSES.